sensor_id;sensor_type;location;lat;lon;timestamp;temperature;humidity
36498;DHT22;22513;51.222;6.480;2022-11-15T00:00:51;9.30;99.90
36498;DHT22;22513;51.222;6.480;2022-11-15T00:03:19;9.30;99.90
36498;DHT22;22513;51.222;6.480;2022-11-15T00:05:45;9.30;99.90
36498;DHT22;22513;51.222;6.480;2022-11-15T00:08:12;9.30;99.90
36498;DHT22;22513;51.222;6.480;2022-11-15T00:10:38;9.30;99.90
36498;DHT22;22513;51.222;6.480;2022-11-15T00:13:08;9.40;99.90
36498;DHT22;22513;51.222;6.480;2022-11-15T00:15:35;9.40;99.90
36498;DHT22;22513;51.222;6.480;2022-11-15T00:18:02;9.40;99.90
36498;DHT22;22513;51.222;6.480;2022-11-15T00:20:27;9.40;99.90
36498;DHT22;22513;51.222;6.480;2022-11-15T00:22:53;9.40;99.90
36498;DHT22;22513;51.222;6.480;2022-11-15T00:25:19;9.40;99.90
36498;DHT22;22513;51.222;6.480;2022-11-15T00:27:44;9.40;99.90
36498;DHT22;22513;51.222;6.480;2022-11-15T00:30:11;9.40;99.90
36498;DHT22;22513;51.222;6.480;2022-11-15T00:32:36;9.40;99.90
36498;DHT22;22513;51.222;6.480;2022-11-15T00:35:02;9.50;99.90
36498;DHT22;22513;51.222;6.480;2022-11-15T00:37:28;9.40;99.90
36498;DHT22;22513;51.222;6.480;2022-11-15T00:39:53;9.50;99.90
36498;DHT22;22513;51.222;6.480;2022-11-15T00:42:19;9.50;99.90
36498;DHT22;22513;51.222;6.480;2022-11-15T00:44:44;9.50;99.90
36498;DHT22;22513;51.222;6.480;2022-11-15T00:47:10;9.50;99.90
36498;DHT22;22513;51.222;6.480;2022-11-15T00:49:36;9.60;99.90
36498;DHT22;22513;51.222;6.480;2022-11-15T00:52:01;9.50;99.90
36498;DHT22;22513;51.222;6.480;2022-11-15T00:54:27;9.60;99.90
36498;DHT22;22513;51.222;6.480;2022-11-15T00:56:52;9.60;99.90
36498;DHT22;22513;51.222;6.480;2022-11-15T00:59:18;9.60;99.90
36498;DHT22;22513;51.222;6.480;2022-11-15T01:01:43;9.60;99.90
36498;DHT22;22513;51.222;6.480;2022-11-15T01:04:09;9.60;99.90
36498;DHT22;22513;51.222;6.480;2022-11-15T01:06:34;9.60;99.90
36498;DHT22;22513;51.222;6.480;2022-11-15T01:09:00;9.70;99.90
36498;DHT22;22513;51.222;6.480;2022-11-15T01:11:26;9.70;99.90
36498;DHT22;22513;51.222;6.480;2022-11-15T01:13:51;9.70;99.90
36498;DHT22;22513;51.222;6.480;2022-11-15T01:16:18;9.70;99.90
36498;DHT22;22513;51.222;6.480;2022-11-15T01:18:44;9.70;99.90
36498;DHT22;22513;51.222;6.480;2022-11-15T01:21:16;9.80;99.90
36498;DHT22;22513;51.222;6.480;2022-11-15T01:23:43;9.70;99.90
36498;DHT22;22513;51.222;6.480;2022-11-15T01:26:12;9.70;99.90
36498;DHT22;22513;51.222;6.480;2022-11-15T01:28:40;9.70;99.90
36498;DHT22;22513;51.222;6.480;2022-11-15T01:31:11;9.70;99.90
36498;DHT22;22513;51.222;6.480;2022-11-15T01:33:37;9.70;99.90
36498;DHT22;22513;51.222;6.480;2022-11-15T01:36:08;9.70;99.90
36498;DHT22;22513;51.222;6.480;2022-11-15T01:38:34;9.70;99.90
36498;DHT22;22513;51.222;6.480;2022-11-15T01:41:00;9.70;99.90
36498;DHT22;22513;51.222;6.480;2022-11-15T01:43:32;9.60;99.90
36498;DHT22;22513;51.222;6.480;2022-11-15T01:48:44;9.60;99.90
36498;DHT22;22513;51.222;6.480;2022-11-15T01:51:12;9.60;99.90
36498;DHT22;22513;51.222;6.480;2022-11-15T01:53:41;9.60;99.90
36498;DHT22;22513;51.222;6.480;2022-11-15T01:56:11;9.60;99.90
36498;DHT22;22513;51.222;6.480;2022-11-15T01:58:39;9.60;99.90
36498;DHT22;22513;51.222;6.480;2022-11-15T02:01:06;9.60;99.90
36498;DHT22;22513;51.222;6.480;2022-11-15T02:03:59;9.60;99.90
36498;DHT22;22513;51.222;6.480;2022-11-15T02:06:26;9.50;99.90
36498;DHT22;22513;51.222;6.480;2022-11-15T02:08:52;9.50;99.90
36498;DHT22;22513;51.222;6.480;2022-11-15T02:11:18;9.50;99.90
36498;DHT22;22513;51.222;6.480;2022-11-15T02:13:44;9.60;99.90
36498;DHT22;22513;51.222;6.480;2022-11-15T02:19:32;9.70;99.90
36498;DHT22;22513;51.222;6.480;2022-11-15T02:22:35;9.80;99.90
36498;DHT22;22513;51.222;6.480;2022-11-15T02:30:55;9.90;99.90
36498;DHT22;22513;51.222;6.480;2022-11-15T02:36:07;10.00;99.90
36498;DHT22;22513;51.222;6.480;2022-11-15T02:38:51;10.00;99.90
36498;DHT22;22513;51.222;6.480;2022-11-15T02:41:31;10.00;99.90
36498;DHT22;22513;51.222;6.480;2022-11-15T02:44:08;10.00;99.90
36498;DHT22;22513;51.222;6.480;2022-11-15T02:47:03;10.10;99.90
36498;DHT22;22513;51.222;6.480;2022-11-15T02:49:48;10.10;99.90
36498;DHT22;22513;51.222;6.480;2022-11-15T02:52:19;10.20;99.90
36498;DHT22;22513;51.222;6.480;2022-11-15T02:54:59;10.20;99.90
36498;DHT22;22513;51.222;6.480;2022-11-15T03:00:12;10.30;99.90
36498;DHT22;22513;51.222;6.480;2022-11-15T03:11:15;10.40;99.90
36498;DHT22;22513;51.222;6.480;2022-11-15T03:16:19;10.40;99.90
36498;DHT22;22513;51.222;6.480;2022-11-15T03:18:52;10.50;99.90
36498;DHT22;22513;51.222;6.480;2022-11-15T03:21:21;10.50;99.90
36498;DHT22;22513;51.222;6.480;2022-11-15T03:23:48;10.50;99.90
36498;DHT22;22513;51.222;6.480;2022-11-15T03:26:18;10.50;99.90
36498;DHT22;22513;51.222;6.480;2022-11-15T03:28:58;10.50;99.90
36498;DHT22;22513;51.222;6.480;2022-11-15T03:31:30;10.60;99.90
36498;DHT22;22513;51.222;6.480;2022-11-15T03:36:45;10.50;99.90
36498;DHT22;22513;51.222;6.480;2022-11-15T03:39:13;10.60;99.90
36498;DHT22;22513;51.222;6.480;2022-11-15T03:42:01;10.60;99.90
36498;DHT22;22513;51.222;6.480;2022-11-15T03:47:43;10.70;99.90
36498;DHT22;22513;51.222;6.480;2022-11-15T03:50:22;10.80;99.90
36498;DHT22;22513;51.222;6.480;2022-11-15T03:52:48;10.80;99.90
36498;DHT22;22513;51.222;6.480;2022-11-15T03:55:19;10.80;99.90
36498;DHT22;22513;51.222;6.480;2022-11-15T03:57:44;10.80;99.90
36498;DHT22;22513;51.222;6.480;2022-11-15T04:00:11;10.80;99.90
36498;DHT22;22513;51.222;6.480;2022-11-15T04:02:37;10.80;99.90
36498;DHT22;22513;51.222;6.480;2022-11-15T04:05:03;10.80;99.90
36498;DHT22;22513;51.222;6.480;2022-11-15T04:07:29;10.80;99.90
36498;DHT22;22513;51.222;6.480;2022-11-15T04:09:55;10.90;99.90
36498;DHT22;22513;51.222;6.480;2022-11-15T04:12:34;10.90;99.90
36498;DHT22;22513;51.222;6.480;2022-11-15T04:17:50;10.90;99.90
36498;DHT22;22513;51.222;6.480;2022-11-15T04:20:36;10.90;99.90
36498;DHT22;22513;51.222;6.480;2022-11-15T04:23:22;11.00;99.90
36498;DHT22;22513;51.222;6.480;2022-11-15T04:26:10;11.00;99.90
36498;DHT22;22513;51.222;6.480;2022-11-15T04:28:36;11.00;99.90
36498;DHT22;22513;51.222;6.480;2022-11-15T04:31:25;11.10;99.90
36498;DHT22;22513;51.222;6.480;2022-11-15T04:33:51;11.10;99.90
36498;DHT22;22513;51.222;6.480;2022-11-15T04:36:16;11.10;99.90
36498;DHT22;22513;51.222;6.480;2022-11-15T04:39:01;11.20;99.90
36498;DHT22;22513;51.222;6.480;2022-11-15T04:41:26;11.20;99.90
36498;DHT22;22513;51.222;6.480;2022-11-15T04:43:52;11.20;99.90
36498;DHT22;22513;51.222;6.480;2022-11-15T04:46:18;11.30;99.90
36498;DHT22;22513;51.222;6.480;2022-11-15T04:48:43;11.30;99.90
36498;DHT22;22513;51.222;6.480;2022-11-15T04:51:09;11.30;99.90
36498;DHT22;22513;51.222;6.480;2022-11-15T04:53:34;11.30;99.90
36498;DHT22;22513;51.222;6.480;2022-11-15T04:56:00;11.30;99.90
36498;DHT22;22513;51.222;6.480;2022-11-15T04:58:25;11.30;99.90
36498;DHT22;22513;51.222;6.480;2022-11-15T05:00:51;11.30;99.90
36498;DHT22;22513;51.222;6.480;2022-11-15T05:03:17;11.30;99.90
36498;DHT22;22513;51.222;6.480;2022-11-15T05:06:01;11.30;99.90
36498;DHT22;22513;51.222;6.480;2022-11-15T05:08:27;11.20;99.90
36498;DHT22;22513;51.222;6.480;2022-11-15T05:10:53;11.30;99.90
36498;DHT22;22513;51.222;6.480;2022-11-15T05:13:18;11.30;99.90
36498;DHT22;22513;51.222;6.480;2022-11-15T05:15:44;11.30;99.90
36498;DHT22;22513;51.222;6.480;2022-11-15T05:18:10;11.30;99.90
36498;DHT22;22513;51.222;6.480;2022-11-15T05:20:36;11.30;99.90
36498;DHT22;22513;51.222;6.480;2022-11-15T05:23:02;11.30;99.90
36498;DHT22;22513;51.222;6.480;2022-11-15T05:25:28;11.30;99.90
36498;DHT22;22513;51.222;6.480;2022-11-15T05:27:53;11.30;99.90
36498;DHT22;22513;51.222;6.480;2022-11-15T05:30:19;11.30;99.90
36498;DHT22;22513;51.222;6.480;2022-11-15T05:32:45;11.30;99.90
36498;DHT22;22513;51.222;6.480;2022-11-15T05:35:18;11.30;99.90
36498;DHT22;22513;51.222;6.480;2022-11-15T05:37:44;11.30;99.90
36498;DHT22;22513;51.222;6.480;2022-11-15T05:40:11;11.30;99.90
36498;DHT22;22513;51.222;6.480;2022-11-15T05:42:37;11.30;99.90
36498;DHT22;22513;51.222;6.480;2022-11-15T05:45:04;11.30;99.90
36498;DHT22;22513;51.222;6.480;2022-11-15T05:47:31;11.40;99.90
36498;DHT22;22513;51.222;6.480;2022-11-15T05:50:00;11.30;99.90
36498;DHT22;22513;51.222;6.480;2022-11-15T05:52:30;11.40;99.90
36498;DHT22;22513;51.222;6.480;2022-11-15T05:54:58;11.40;99.90
36498;DHT22;22513;51.222;6.480;2022-11-15T05:57:24;11.40;99.90
36498;DHT22;22513;51.222;6.480;2022-11-15T05:59:50;11.40;99.90
36498;DHT22;22513;51.222;6.480;2022-11-15T06:02:16;11.40;99.90
36498;DHT22;22513;51.222;6.480;2022-11-15T06:04:41;11.40;99.90
36498;DHT22;22513;51.222;6.480;2022-11-15T06:07:07;11.40;99.90
36498;DHT22;22513;51.222;6.480;2022-11-15T06:09:32;11.40;99.90
36498;DHT22;22513;51.222;6.480;2022-11-15T06:11:58;11.40;99.90
36498;DHT22;22513;51.222;6.480;2022-11-15T06:14:24;11.40;99.90
36498;DHT22;22513;51.222;6.480;2022-11-15T06:16:50;11.40;99.90
36498;DHT22;22513;51.222;6.480;2022-11-15T06:19:15;11.40;99.90
36498;DHT22;22513;51.222;6.480;2022-11-15T06:21:41;11.40;99.90
36498;DHT22;22513;51.222;6.480;2022-11-15T06:24:07;11.40;99.90
36498;DHT22;22513;51.222;6.480;2022-11-15T06:26:32;11.40;99.90
36498;DHT22;22513;51.222;6.480;2022-11-15T06:28:58;11.40;99.90
36498;DHT22;22513;51.222;6.480;2022-11-15T06:31:23;11.40;99.90
36498;DHT22;22513;51.222;6.480;2022-11-15T06:33:49;11.40;99.90
36498;DHT22;22513;51.222;6.480;2022-11-15T06:36:15;11.40;99.90
36498;DHT22;22513;51.222;6.480;2022-11-15T06:38:43;11.40;99.90
36498;DHT22;22513;51.222;6.480;2022-11-15T06:41:10;11.40;99.90
36498;DHT22;22513;51.222;6.480;2022-11-15T06:43:36;11.40;99.90
36498;DHT22;22513;51.222;6.480;2022-11-15T06:46:03;11.40;99.90
36498;DHT22;22513;51.222;6.480;2022-11-15T06:48:30;11.40;99.90
36498;DHT22;22513;51.222;6.480;2022-11-15T06:50:58;11.40;99.90
36498;DHT22;22513;51.222;6.480;2022-11-15T06:53:25;11.40;99.90
36498;DHT22;22513;51.222;6.480;2022-11-15T06:55:51;11.40;99.90
36498;DHT22;22513;51.222;6.480;2022-11-15T06:58:17;11.50;99.90
36498;DHT22;22513;51.222;6.480;2022-11-15T07:00:43;11.50;99.90
36498;DHT22;22513;51.222;6.480;2022-11-15T07:03:09;11.60;99.90
36498;DHT22;22513;51.222;6.480;2022-11-15T07:05:35;11.70;99.90
36498;DHT22;22513;51.222;6.480;2022-11-15T07:08:01;11.70;99.90
36498;DHT22;22513;51.222;6.480;2022-11-15T07:10:27;11.80;99.90
36498;DHT22;22513;51.222;6.480;2022-11-15T07:12:54;11.80;99.90
36498;DHT22;22513;51.222;6.480;2022-11-15T07:15:22;11.80;99.90
36498;DHT22;22513;51.222;6.480;2022-11-15T07:17:48;11.80;99.90
36498;DHT22;22513;51.222;6.480;2022-11-15T07:20:14;11.70;99.90
36498;DHT22;22513;51.222;6.480;2022-11-15T07:22:40;11.70;99.90
36498;DHT22;22513;51.222;6.480;2022-11-15T07:25:07;11.70;99.90
36498;DHT22;22513;51.222;6.480;2022-11-15T07:27:33;11.70;99.90
36498;DHT22;22513;51.222;6.480;2022-11-15T07:29:59;11.70;99.90
36498;DHT22;22513;51.222;6.480;2022-11-15T07:32:25;11.70;99.90
36498;DHT22;22513;51.222;6.480;2022-11-15T07:34:50;11.70;99.90
36498;DHT22;22513;51.222;6.480;2022-11-15T07:37:16;11.70;99.90
36498;DHT22;22513;51.222;6.480;2022-11-15T07:39:42;11.60;99.90
36498;DHT22;22513;51.222;6.480;2022-11-15T07:42:08;11.60;99.90
36498;DHT22;22513;51.222;6.480;2022-11-15T07:44:52;11.60;99.90
36498;DHT22;22513;51.222;6.480;2022-11-15T07:47:18;11.50;99.90
36498;DHT22;22513;51.222;6.480;2022-11-15T07:49:44;11.50;99.90
36498;DHT22;22513;51.222;6.480;2022-11-15T07:52:11;11.50;99.90
36498;DHT22;22513;51.222;6.480;2022-11-15T07:54:37;11.50;99.90
36498;DHT22;22513;51.222;6.480;2022-11-15T07:57:03;11.40;99.90
36498;DHT22;22513;51.222;6.480;2022-11-15T07:59:28;11.50;99.90
36498;DHT22;22513;51.222;6.480;2022-11-15T08:01:54;11.50;99.90
36498;DHT22;22513;51.222;6.480;2022-11-15T08:04:19;11.50;99.90
36498;DHT22;22513;51.222;6.480;2022-11-15T08:06:45;11.60;99.90
36498;DHT22;22513;51.222;6.480;2022-11-15T08:09:11;11.60;99.90
36498;DHT22;22513;51.222;6.480;2022-11-15T08:11:37;11.70;99.90
36498;DHT22;22513;51.222;6.480;2022-11-15T08:14:02;11.80;99.90
36498;DHT22;22513;51.222;6.480;2022-11-15T08:16:28;11.90;99.90
36498;DHT22;22513;51.222;6.480;2022-11-15T08:18:53;12.00;99.90
36498;DHT22;22513;51.222;6.480;2022-11-15T08:21:20;12.10;99.90
36498;DHT22;22513;51.222;6.480;2022-11-15T08:23:46;12.20;99.90
36498;DHT22;22513;51.222;6.480;2022-11-15T08:26:12;12.20;99.90
36498;DHT22;22513;51.222;6.480;2022-11-15T08:28:38;12.20;99.90
36498;DHT22;22513;51.222;6.480;2022-11-15T08:31:03;12.20;99.90
36498;DHT22;22513;51.222;6.480;2022-11-15T08:33:30;12.20;99.90
36498;DHT22;22513;51.222;6.480;2022-11-15T08:35:56;12.20;99.90
36498;DHT22;22513;51.222;6.480;2022-11-15T08:38:22;12.10;99.90
36498;DHT22;22513;51.222;6.480;2022-11-15T08:40:50;12.10;99.90
36498;DHT22;22513;51.222;6.480;2022-11-15T08:43:15;12.00;99.90
36498;DHT22;22513;51.222;6.480;2022-11-15T08:45:41;12.00;99.90
36498;DHT22;22513;51.222;6.480;2022-11-15T08:48:07;11.90;99.90
36498;DHT22;22513;51.222;6.480;2022-11-15T08:50:32;11.80;99.90
36498;DHT22;22513;51.222;6.480;2022-11-15T08:53:04;11.80;99.90
36498;DHT22;22513;51.222;6.480;2022-11-15T08:55:30;11.80;99.90
36498;DHT22;22513;51.222;6.480;2022-11-15T08:57:57;11.70;99.90
36498;DHT22;22513;51.222;6.480;2022-11-15T09:00:23;11.70;99.90
36498;DHT22;22513;51.222;6.480;2022-11-15T09:02:48;11.70;99.90
36498;DHT22;22513;51.222;6.480;2022-11-15T09:05:14;11.80;99.90
36498;DHT22;22513;51.222;6.480;2022-11-15T09:07:40;11.80;99.90
36498;DHT22;22513;51.222;6.480;2022-11-15T09:10:06;11.90;99.90
36498;DHT22;22513;51.222;6.480;2022-11-15T09:12:32;12.00;99.90
36498;DHT22;22513;51.222;6.480;2022-11-15T09:14:58;12.20;99.90
36498;DHT22;22513;51.222;6.480;2022-11-15T09:17:24;12.40;99.90
36498;DHT22;22513;51.222;6.480;2022-11-15T09:19:49;12.50;99.90
36498;DHT22;22513;51.222;6.480;2022-11-15T09:24:44;12.70;99.90
36498;DHT22;22513;51.222;6.480;2022-11-15T09:27:10;12.80;99.90
36498;DHT22;22513;51.222;6.480;2022-11-15T09:29:35;12.80;99.90
36498;DHT22;22513;51.222;6.480;2022-11-15T09:32:01;12.80;99.90
36498;DHT22;22513;51.222;6.480;2022-11-15T09:34:27;12.70;99.90
36498;DHT22;22513;51.222;6.480;2022-11-15T09:36:53;12.70;99.90
36498;DHT22;22513;51.222;6.480;2022-11-15T09:39:18;12.70;99.90
36498;DHT22;22513;51.222;6.480;2022-11-15T09:49:22;12.60;99.90
36498;DHT22;22513;51.222;6.480;2022-11-15T09:51:50;12.70;99.90
36498;DHT22;22513;51.222;6.480;2022-11-15T09:54:38;12.70;99.90
36498;DHT22;22513;51.222;6.480;2022-11-15T09:57:20;12.70;99.90
36498;DHT22;22513;51.222;6.480;2022-11-15T10:00:03;12.70;99.90
36498;DHT22;22513;51.222;6.480;2022-11-15T10:05:21;12.70;99.90
36498;DHT22;22513;51.222;6.480;2022-11-15T10:08:21;12.70;99.90
36498;DHT22;22513;51.222;6.480;2022-11-15T10:10:51;12.70;99.90
36498;DHT22;22513;51.222;6.480;2022-11-15T10:13:24;12.70;99.90
36498;DHT22;22513;51.222;6.480;2022-11-15T10:15:56;12.70;99.90
36498;DHT22;22513;51.222;6.480;2022-11-15T10:18:35;12.60;99.90
36498;DHT22;22513;51.222;6.480;2022-11-15T10:24:19;12.60;99.90
36498;DHT22;22513;51.222;6.480;2022-11-15T10:26:48;12.60;99.90
36498;DHT22;22513;51.222;6.480;2022-11-15T10:29:18;12.60;99.90
36498;DHT22;22513;51.222;6.480;2022-11-15T10:31:44;12.60;99.90
36498;DHT22;22513;51.222;6.480;2022-11-15T10:34:17;12.60;99.90
36498;DHT22;22513;51.222;6.480;2022-11-15T10:36:46;12.50;99.90
36498;DHT22;22513;51.222;6.480;2022-11-15T10:39:13;12.50;99.90
36498;DHT22;22513;51.222;6.480;2022-11-15T10:41:41;12.50;99.90
36498;DHT22;22513;51.222;6.480;2022-11-15T10:46:44;12.40;99.90
36498;DHT22;22513;51.222;6.480;2022-11-15T10:49:20;12.50;99.90
36498;DHT22;22513;51.222;6.480;2022-11-15T10:51:53;12.50;99.90
36498;DHT22;22513;51.222;6.480;2022-11-15T10:54:30;12.50;99.90
36498;DHT22;22513;51.222;6.480;2022-11-15T10:56:59;12.50;99.90
36498;DHT22;22513;51.222;6.480;2022-11-15T10:59:31;12.60;99.90
36498;DHT22;22513;51.222;6.480;2022-11-15T11:01:59;12.60;99.90
36498;DHT22;22513;51.222;6.480;2022-11-15T11:04:25;12.60;99.90
36498;DHT22;22513;51.222;6.480;2022-11-15T11:11:50;12.80;99.90
36498;DHT22;22513;51.222;6.480;2022-11-15T11:14:24;12.80;99.90
36498;DHT22;22513;51.222;6.480;2022-11-15T11:25:33;12.90;99.90
36498;DHT22;22513;51.222;6.480;2022-11-15T11:33:20;12.90;99.90
36498;DHT22;22513;51.222;6.480;2022-11-15T11:35:51;13.00;99.90
36498;DHT22;22513;51.222;6.480;2022-11-15T11:46:59;13.20;99.90
36498;DHT22;22513;51.222;6.480;2022-11-15T11:52:30;13.30;99.90
36498;DHT22;22513;51.222;6.480;2022-11-15T11:55:20;13.30;99.90
36498;DHT22;22513;51.222;6.480;2022-11-15T11:58:00;13.40;99.90
36498;DHT22;22513;51.222;6.480;2022-11-15T12:00:28;13.40;99.90
36498;DHT22;22513;51.222;6.480;2022-11-15T12:05:57;13.40;99.90
36498;DHT22;22513;51.222;6.480;2022-11-15T12:10:59;13.40;99.90
36498;DHT22;22513;51.222;6.480;2022-11-15T12:13:26;13.40;99.90
36498;DHT22;22513;51.222;6.480;2022-11-15T12:16:03;13.40;99.90
36498;DHT22;22513;51.222;6.480;2022-11-15T12:18:31;13.40;99.90
36498;DHT22;22513;51.222;6.480;2022-11-15T12:21:13;13.40;99.90
36498;DHT22;22513;51.222;6.480;2022-11-15T12:23:52;13.50;99.90
36498;DHT22;22513;51.222;6.480;2022-11-15T12:26:29;13.50;99.90
36498;DHT22;22513;51.222;6.480;2022-11-15T12:29:01;13.50;99.90
36498;DHT22;22513;51.222;6.480;2022-11-15T12:34:02;13.60;99.90
36498;DHT22;22513;51.222;6.480;2022-11-15T12:36:37;13.60;99.90
36498;DHT22;22513;51.222;6.480;2022-11-15T12:39:04;13.70;99.90
36498;DHT22;22513;51.222;6.480;2022-11-15T12:41:32;13.70;99.90
36498;DHT22;22513;51.222;6.480;2022-11-15T12:43:58;13.80;99.90
36498;DHT22;22513;51.222;6.480;2022-11-15T12:49:54;13.80;99.90
36498;DHT22;22513;51.222;6.480;2022-11-15T13:02:33;13.90;99.90
36498;DHT22;22513;51.222;6.480;2022-11-15T13:13:00;13.90;99.90
36498;DHT22;22513;51.222;6.480;2022-11-15T13:15:58;13.90;99.90
36498;DHT22;22513;51.222;6.480;2022-11-15T13:18:36;13.90;99.90
36498;DHT22;22513;51.222;6.480;2022-11-15T13:21:04;14.00;99.90
36498;DHT22;22513;51.222;6.480;2022-11-15T13:23:54;14.10;99.90
36498;DHT22;22513;51.222;6.480;2022-11-15T13:26:21;14.10;99.90
36498;DHT22;22513;51.222;6.480;2022-11-15T13:28:49;14.10;99.90
36498;DHT22;22513;51.222;6.480;2022-11-15T13:31:30;14.10;99.90
36498;DHT22;22513;51.222;6.480;2022-11-15T13:34:12;14.10;99.90
36498;DHT22;22513;51.222;6.480;2022-11-15T13:36:39;14.00;99.90
36498;DHT22;22513;51.222;6.480;2022-11-15T13:39:26;14.00;99.90
36498;DHT22;22513;51.222;6.480;2022-11-15T13:41:52;14.00;99.90
36498;DHT22;22513;51.222;6.480;2022-11-15T13:44:22;13.90;99.90
36498;DHT22;22513;51.222;6.480;2022-11-15T13:46:48;14.00;99.90
36498;DHT22;22513;51.222;6.480;2022-11-15T13:49:14;14.00;99.90
36498;DHT22;22513;51.222;6.480;2022-11-15T13:51:58;14.00;99.90
36498;DHT22;22513;51.222;6.480;2022-11-15T13:54:27;14.10;99.90
36498;DHT22;22513;51.222;6.480;2022-11-15T13:57:03;14.10;99.90
36498;DHT22;22513;51.222;6.480;2022-11-15T13:59:33;14.10;99.90
36498;DHT22;22513;51.222;6.480;2022-11-15T14:02:03;14.00;99.90
36498;DHT22;22513;51.222;6.480;2022-11-15T14:04:34;14.00;99.90
36498;DHT22;22513;51.222;6.480;2022-11-15T14:07:01;14.00;99.90
36498;DHT22;22513;51.222;6.480;2022-11-15T14:09:36;13.90;99.90
36498;DHT22;22513;51.222;6.480;2022-11-15T14:12:34;13.90;99.90
36498;DHT22;22513;51.222;6.480;2022-11-15T14:15:18;13.90;99.90
36498;DHT22;22513;51.222;6.480;2022-11-15T14:17:44;13.90;99.90
36498;DHT22;22513;51.222;6.480;2022-11-15T14:22:54;14.00;99.90
36498;DHT22;22513;51.222;6.480;2022-11-15T14:25:23;14.00;99.90
36498;DHT22;22513;51.222;6.480;2022-11-15T14:30:44;14.00;99.90
36498;DHT22;22513;51.222;6.480;2022-11-15T14:33:33;14.00;99.90
36498;DHT22;22513;51.222;6.480;2022-11-15T14:38:32;13.90;99.90
36498;DHT22;22513;51.222;6.480;2022-11-15T14:40:57;13.90;99.90
36498;DHT22;22513;51.222;6.480;2022-11-15T14:43:23;13.90;99.90
36498;DHT22;22513;51.222;6.480;2022-11-15T14:45:49;13.80;99.90
36498;DHT22;22513;51.222;6.480;2022-11-15T14:48:15;13.80;99.90
36498;DHT22;22513;51.222;6.480;2022-11-15T14:50:40;13.80;99.90
36498;DHT22;22513;51.222;6.480;2022-11-15T14:53:06;13.70;99.90
36498;DHT22;22513;51.222;6.480;2022-11-15T14:55:35;13.70;99.90
36498;DHT22;22513;51.222;6.480;2022-11-15T14:58:02;13.70;99.90
36498;DHT22;22513;51.222;6.480;2022-11-15T15:00:30;13.70;99.90
36498;DHT22;22513;51.222;6.480;2022-11-15T15:02:56;13.70;99.90
36498;DHT22;22513;51.222;6.480;2022-11-15T15:07:47;13.60;99.90
36498;DHT22;22513;51.222;6.480;2022-11-15T15:10:14;13.60;99.90
36498;DHT22;22513;51.222;6.480;2022-11-15T15:12:40;13.60;99.90
36498;DHT22;22513;51.222;6.480;2022-11-15T15:15:09;13.60;99.90
36498;DHT22;22513;51.222;6.480;2022-11-15T15:17:37;13.60;99.90
36498;DHT22;22513;51.222;6.480;2022-11-15T15:20:03;13.50;99.90
36498;DHT22;22513;51.222;6.480;2022-11-15T15:22:30;13.50;99.90
36498;DHT22;22513;51.222;6.480;2022-11-15T15:24:55;13.50;99.90
36498;DHT22;22513;51.222;6.480;2022-11-15T15:27:21;13.40;99.90
36498;DHT22;22513;51.222;6.480;2022-11-15T15:29:46;13.40;99.90
36498;DHT22;22513;51.222;6.480;2022-11-15T15:32:12;13.40;99.90
36498;DHT22;22513;51.222;6.480;2022-11-15T15:34:38;13.40;99.90
36498;DHT22;22513;51.222;6.480;2022-11-15T15:37:24;13.30;99.90
36498;DHT22;22513;51.222;6.480;2022-11-15T15:39:55;13.20;99.90
36498;DHT22;22513;51.222;6.480;2022-11-15T15:42:22;13.20;99.90
36498;DHT22;22513;51.222;6.480;2022-11-15T15:44:48;13.10;99.90
36498;DHT22;22513;51.222;6.480;2022-11-15T15:47:20;13.10;99.90
36498;DHT22;22513;51.222;6.480;2022-11-15T15:49:46;13.10;99.90
36498;DHT22;22513;51.222;6.480;2022-11-15T15:52:12;13.10;99.90
36498;DHT22;22513;51.222;6.480;2022-11-15T15:54:38;13.10;99.90
36498;DHT22;22513;51.222;6.480;2022-11-15T15:57:06;13.10;99.90
36498;DHT22;22513;51.222;6.480;2022-11-15T15:59:32;13.00;99.90
36498;DHT22;22513;51.222;6.480;2022-11-15T16:01:58;13.00;99.90
36498;DHT22;22513;51.222;6.480;2022-11-15T16:04:23;13.00;99.90
36498;DHT22;22513;51.222;6.480;2022-11-15T16:06:49;13.00;99.90
36498;DHT22;22513;51.222;6.480;2022-11-15T16:09:18;13.00;99.90
36498;DHT22;22513;51.222;6.480;2022-11-15T16:11:45;13.00;99.90
36498;DHT22;22513;51.222;6.480;2022-11-15T16:14:11;13.00;99.90
36498;DHT22;22513;51.222;6.480;2022-11-15T16:16:37;13.00;99.90
36498;DHT22;22513;51.222;6.480;2022-11-15T16:19:04;13.00;99.90
36498;DHT22;22513;51.222;6.480;2022-11-15T16:21:29;13.00;99.90
36498;DHT22;22513;51.222;6.480;2022-11-15T16:23:55;13.00;99.90
36498;DHT22;22513;51.222;6.480;2022-11-15T16:26:22;13.00;99.90
36498;DHT22;22513;51.222;6.480;2022-11-15T16:28:49;13.00;99.90
36498;DHT22;22513;51.222;6.480;2022-11-15T16:31:14;12.90;99.90
36498;DHT22;22513;51.222;6.480;2022-11-15T16:33:43;13.00;99.90
36498;DHT22;22513;51.222;6.480;2022-11-15T16:36:35;12.90;99.90
36498;DHT22;22513;51.222;6.480;2022-11-15T16:39:01;12.90;99.90
36498;DHT22;22513;51.222;6.480;2022-11-15T16:41:30;12.90;99.90
36498;DHT22;22513;51.222;6.480;2022-11-15T16:43:56;12.90;99.90
36498;DHT22;22513;51.222;6.480;2022-11-15T16:46:24;12.90;99.90
36498;DHT22;22513;51.222;6.480;2022-11-15T16:48:50;12.90;99.90
36498;DHT22;22513;51.222;6.480;2022-11-15T16:51:16;12.90;99.90
36498;DHT22;22513;51.222;6.480;2022-11-15T16:53:43;12.90;99.90
36498;DHT22;22513;51.222;6.480;2022-11-15T16:58:47;12.90;99.90
36498;DHT22;22513;51.222;6.480;2022-11-15T17:01:23;12.90;99.90
36498;DHT22;22513;51.222;6.480;2022-11-15T17:03:49;13.00;99.90
36498;DHT22;22513;51.222;6.480;2022-11-15T17:06:15;13.00;99.90
36498;DHT22;22513;51.222;6.480;2022-11-15T17:08:43;13.00;99.90
36498;DHT22;22513;51.222;6.480;2022-11-15T17:11:09;13.00;99.90
36498;DHT22;22513;51.222;6.480;2022-11-15T17:13:35;13.00;99.90
36498;DHT22;22513;51.222;6.480;2022-11-15T17:16:07;13.00;99.90
36498;DHT22;22513;51.222;6.480;2022-11-15T17:18:34;13.10;99.90
36498;DHT22;22513;51.222;6.480;2022-11-15T17:21:12;13.00;99.90
36498;DHT22;22513;51.222;6.480;2022-11-15T17:23:38;13.00;99.90
36498;DHT22;22513;51.222;6.480;2022-11-15T17:26:05;13.00;99.90
36498;DHT22;22513;51.222;6.480;2022-11-15T17:28:31;13.00;99.90
36498;DHT22;22513;51.222;6.480;2022-11-15T17:30:57;13.00;99.90
36498;DHT22;22513;51.222;6.480;2022-11-15T17:33:23;13.00;99.90
36498;DHT22;22513;51.222;6.480;2022-11-15T17:36:00;12.90;99.90
36498;DHT22;22513;51.222;6.480;2022-11-15T17:38:27;12.90;99.90
36498;DHT22;22513;51.222;6.480;2022-11-15T17:41:06;12.90;99.90
36498;DHT22;22513;51.222;6.480;2022-11-15T17:43:34;12.90;99.90
36498;DHT22;22513;51.222;6.480;2022-11-15T17:46:04;12.90;99.90
36498;DHT22;22513;51.222;6.480;2022-11-15T17:48:30;12.80;99.90
36498;DHT22;22513;51.222;6.480;2022-11-15T17:51:01;12.80;99.90
36498;DHT22;22513;51.222;6.480;2022-11-15T17:53:30;12.70;99.90